sensor_id;sensor_type;location;lat;lon;timestamp;pressure;altitude;pressure_sealevel;temperature;humidity
2188;BME280;1100;52.014;8.540;2023-02-12T00:00:09;102241.94;;;5.94;95.91
2188;BME280;1100;52.014;8.540;2023-02-12T00:02:34;102233.66;;;5.94;95.74
2188;BME280;1100;52.014;8.540;2023-02-12T00:04:59;102243.09;;;5.93;95.74
2188;BME280;1100;52.014;8.540;2023-02-12T00:07:25;102241.81;;;5.90;95.95
2188;BME280;1100;52.014;8.540;2023-02-12T00:09:53;102235.53;;;5.90;95.92
2188;BME280;1100;52.014;8.540;2023-02-12T00:12:18;102239.88;;;5.91;96.04
2188;BME280;1100;52.014;8.540;2023-02-12T00:14:44;102231.94;;;5.89;96.14
2188;BME280;1100;52.014;8.540;2023-02-12T00:17:09;102231.13;;;5.89;95.95
2188;BME280;1100;52.014;8.540;2023-02-12T00:19:34;102234.25;;;5.87;96.16
2188;BME280;1100;52.014;8.540;2023-02-12T00:22:00;102240.13;;;5.85;95.94
2188;BME280;1100;52.014;8.540;2023-02-12T00:24:25;102239.34;;;5.85;96.14
2188;BME280;1100;52.014;8.540;2023-02-12T00:26:51;102249.56;;;5.84;95.88
2188;BME280;1100;52.014;8.540;2023-02-12T00:29:17;102239.34;;;5.85;96.16
2188;BME280;1100;52.014;8.540;2023-02-12T00:31:42;102233.81;;;5.85;95.97
2188;BME280;1100;52.014;8.540;2023-02-12T00:34:09;102240.13;;;5.85;96.06
2188;BME280;1100;52.014;8.540;2023-02-12T00:36:35;102241.28;;;5.84;96.01
2188;BME280;1100;52.014;8.540;2023-02-12T00:39:00;102249.94;;;5.83;95.97
2188;BME280;1100;52.014;8.540;2023-02-12T00:41:26;102245.94;;;5.80;96.00
2188;BME280;1100;52.014;8.540;2023-02-12T00:43:52;102247.53;;;5.81;96.26
2188;BME280;1100;52.014;8.540;2023-02-12T00:46:27;102252.22;;;5.81;95.90
2188;BME280;1100;52.014;8.540;2023-02-12T00:48:52;102254.22;;;5.80;95.95
2188;BME280;1100;52.014;8.540;2023-02-12T00:51:18;102258.09;;;5.79;96.01
2188;BME280;1100;52.014;8.540;2023-02-12T00:53:43;102264.78;;;5.78;96.16
2188;BME280;1100;52.014;8.540;2023-02-12T00:56:08;102253.75;;;5.78;96.17
2188;BME280;1100;52.014;8.540;2023-02-12T00:58:34;102264.31;;;5.76;96.28
2188;BME280;1100;52.014;8.540;2023-02-12T01:00:59;102265.94;;;5.77;96.08
2188;BME280;1100;52.014;8.540;2023-02-12T01:03:25;102259.97;;;5.75;96.23
2188;BME280;1100;52.014;8.540;2023-02-12T01:05:51;102267.91;;;5.77;96.23
2188;BME280;1100;52.014;8.540;2023-02-12T01:08:16;102258.81;;;5.76;96.16
2188;BME280;1100;52.014;8.540;2023-02-12T01:10:42;102259.97;;;5.75;96.01
2188;BME280;1100;52.014;8.540;2023-02-12T01:13:11;102254.81;;;5.73;96.04
2188;BME280;1100;52.014;8.540;2023-02-12T01:15:38;102263.91;;;5.74;96.37
2188;BME280;1100;52.014;8.540;2023-02-12T01:18:04;102272.88;;;5.71;96.32
2188;BME280;1100;52.014;8.540;2023-02-12T01:20:29;102260.91;;;5.67;96.14
2188;BME280;1100;52.014;8.540;2023-02-12T01:22:55;102262.53;;;5.68;96.35
2188;BME280;1100;52.014;8.540;2023-02-12T01:25:20;102268.06;;;5.68;96.26
2188;BME280;1100;52.014;8.540;2023-02-12T01:27:45;102266.91;;;5.69;96.21
2188;BME280;1100;52.014;8.540;2023-02-12T01:30:17;102267.59;;;5.66;96.43
2188;BME280;1100;52.014;8.540;2023-02-12T01:32:46;102267.72;;;5.69;96.59
2188;BME280;1100;52.014;8.540;2023-02-12T01:35:11;102266.44;;;5.67;96.43
2188;BME280;1100;52.014;8.540;2023-02-12T01:37:37;102264.84;;;5.66;96.38
2188;BME280;1100;52.014;8.540;2023-02-12T01:40:06;102270.34;;;5.66;96.25
2188;BME280;1100;52.014;8.540;2023-02-12T01:42:35;102274.38;;;5.68;96.49
2188;BME280;1100;52.014;8.540;2023-02-12T01:47:43;102275.88;;;5.66;96.39
2188;BME280;1100;52.014;8.540;2023-02-12T01:50:12;102269.91;;;5.64;96.48
2188;BME280;1100;52.014;8.540;2023-02-12T01:52:42;102285.31;;;5.65;96.67
2188;BME280;1100;52.014;8.540;2023-02-12T01:55:09;102273.47;;;5.64;96.67
2188;BME280;1100;52.014;8.540;2023-02-12T01:57:42;102271.06;;;5.63;96.34
2188;BME280;1100;52.014;8.540;2023-02-12T02:00:12;102275.41;;;5.64;96.62
2188;BME280;1100;52.014;8.540;2023-02-12T02:02:38;102270.59;;;5.60;96.13
2188;BME280;1100;52.014;8.540;2023-02-12T02:05:04;102269.47;;;5.61;96.72
2188;BME280;1100;52.014;8.540;2023-02-12T02:07:30;102272.56;;;5.60;96.42
2188;BME280;1100;52.014;8.540;2023-02-12T02:09:56;102270.50;;;5.57;96.37
2188;BME280;1100;52.014;8.540;2023-02-12T02:12:23;102268.53;;;5.57;96.44
2188;BME280;1100;52.014;8.540;2023-02-12T02:15:07;102265.44;;;5.59;96.66
2188;BME280;1100;52.014;8.540;2023-02-12T02:35:39;102259.84;;;5.55;96.46
2188;BME280;1100;52.014;8.540;2023-02-12T02:38:16;102252.34;;;5.56;96.22
2188;BME280;1100;52.014;8.540;2023-02-12T02:43:27;102244.41;;;5.54;96.67
2188;BME280;1100;52.014;8.540;2023-02-12T02:46:05;102241.31;;;5.56;96.24
2188;BME280;1100;52.014;8.540;2023-02-12T02:48:38;102244.41;;;5.54;96.21
2188;BME280;1100;52.014;8.540;2023-02-12T02:51:12;102240.88;;;5.54;96.32
2188;BME280;1100;52.014;8.540;2023-02-12T02:53:44;102246.28;;;5.50;96.35
2188;BME280;1100;52.014;8.540;2023-02-12T02:56:15;102237.53;;;5.48;96.24
2188;BME280;1100;52.014;8.540;2023-02-12T02:58:58;102246.16;;;5.46;96.40
2188;BME280;1100;52.014;8.540;2023-02-12T03:01:46;102246.16;;;5.46;96.30
2188;BME280;1100;52.014;8.540;2023-02-12T03:04:20;102247.69;;;5.44;96.12
2188;BME280;1100;52.014;8.540;2023-02-12T03:06:58;102250.44;;;5.44;96.28
2188;BME280;1100;52.014;8.540;2023-02-12T03:09:34;102242.06;;;5.40;96.20
2188;BME280;1100;52.014;8.540;2023-02-12T03:12:13;102249.53;;;5.40;96.04
2188;BME280;1100;52.014;8.540;2023-02-12T03:14:46;102246.31;;;5.38;96.17
2188;BME280;1100;52.014;8.540;2023-02-12T03:17:25;102245.50;;;5.37;96.38
2188;BME280;1100;52.014;8.540;2023-02-12T03:20:24;102249.91;;;5.38;96.20
2188;BME280;1100;52.014;8.540;2023-02-12T03:22:54;102243.09;;;5.35;96.06
2188;BME280;1100;52.014;8.540;2023-02-12T03:25:28;102243.44;;;5.34;96.09
2188;BME280;1100;52.014;8.540;2023-02-12T03:28:05;102242.31;;;5.35;96.18
2188;BME280;1100;52.014;8.540;2023-02-12T03:30:40;102241.03;;;5.32;96.40
2188;BME280;1100;52.014;8.540;2023-02-12T03:38:34;102242.09;;;5.28;96.13
2188;BME280;1100;52.014;8.540;2023-02-12T03:41:11;102246.78;;;5.27;96.34
2188;BME280;1100;52.014;8.540;2023-02-12T03:43:49;102231.75;;;5.24;96.50
2188;BME280;1100;52.014;8.540;2023-02-12T03:48:54;102241.63;;;5.26;96.37
2188;BME280;1100;52.014;8.540;2023-02-12T03:51:29;102242.31;;;5.22;96.49
2188;BME280;1100;52.014;8.540;2023-02-12T03:53:57;102246.72;;;5.23;96.38
2188;BME280;1100;52.014;8.540;2023-02-12T03:56:37;102232.09;;;5.23;96.38
2188;BME280;1100;52.014;8.540;2023-02-12T03:59:04;102243.13;;;5.23;96.21
2188;BME280;1100;52.014;8.540;2023-02-12T04:01:32;102253.00;;;5.24;96.10
2188;BME280;1100;52.014;8.540;2023-02-12T04:04:00;102256.13;;;5.22;96.43
2188;BME280;1100;52.014;8.540;2023-02-12T04:06:27;102259.69;;;5.23;96.52
2188;BME280;1100;52.014;8.540;2023-02-12T04:08:54;102252.09;;;5.20;96.48
2188;BME280;1100;52.014;8.540;2023-02-12T04:30:43;102286.25;;;5.15;96.26
2188;BME280;1100;52.014;8.540;2023-02-12T04:33:15;102285.09;;;5.16;96.51
2188;BME280;1100;52.014;8.540;2023-02-12T04:35:47;102292.56;;;5.16;96.37
2188;BME280;1100;52.014;8.540;2023-02-12T04:38:46;102296.91;;;5.17;96.19
2188;BME280;1100;52.014;8.540;2023-02-12T04:41:14;102300.84;;;5.16;96.55
2188;BME280;1100;52.014;8.540;2023-02-12T04:43:39;102300.84;;;5.16;96.66
2188;BME280;1100;52.014;8.540;2023-02-12T04:46:06;102311.06;;;5.15;96.78
2188;BME280;1100;52.014;8.540;2023-02-12T04:48:32;102310.25;;;5.15;96.52
2188;BME280;1100;52.014;8.540;2023-02-12T04:50:59;102309.13;;;5.16;96.58
2188;BME280;1100;52.014;8.540;2023-02-12T04:53:24;102307.94;;;5.17;96.50
2188;BME280;1100;52.014;8.540;2023-02-12T04:55:50;102315.41;;;5.16;96.45
2188;BME280;1100;52.014;8.540;2023-02-12T04:58:15;102309.56;;;5.18;96.68
2188;BME280;1100;52.014;8.540;2023-02-12T05:00:41;102305.53;;;5.15;96.56
2188;BME280;1100;52.014;8.540;2023-02-12T05:03:06;102307.47;;;5.15;96.52
2188;BME280;1100;52.014;8.540;2023-02-12T05:05:32;102310.72;;;5.17;96.39
2188;BME280;1100;52.014;8.540;2023-02-12T05:07:57;102309.56;;;5.18;96.54
2188;BME280;1100;52.014;8.540;2023-02-12T05:10:23;102309.13;;;5.16;96.29
2188;BME280;1100;52.014;8.540;2023-02-12T05:12:53;102314.16;;;5.14;96.40
2188;BME280;1100;52.014;8.540;2023-02-12T05:15:19;102311.06;;;5.15;96.39
2188;BME280;1100;52.014;8.540;2023-02-12T05:17:45;102310.25;;;5.15;96.73
2188;BME280;1100;52.014;8.540;2023-02-12T05:20:11;102317.72;;;5.14;96.50
2188;BME280;1100;52.014;8.540;2023-02-12T05:22:37;102305.00;;;5.09;96.19
2188;BME280;1100;52.014;8.540;2023-02-12T05:25:02;102318.06;;;5.13;96.54
2188;BME280;1100;52.014;8.540;2023-02-12T05:27:28;102311.28;;;5.10;96.56
2188;BME280;1100;52.014;8.540;2023-02-12T05:29:53;102315.19;;;5.09;96.52
2188;BME280;1100;52.014;8.540;2023-02-12T05:32:18;102311.28;;;5.10;96.46
2188;BME280;1100;52.014;8.540;2023-02-12T05:34:44;102312.09;;;5.10;96.34
2188;BME280;1100;52.014;8.540;2023-02-12T05:37:09;102306.47;;;5.07;96.40
2188;BME280;1100;52.014;8.540;2023-02-12T05:39:34;102304.88;;;5.06;96.57
2188;BME280;1100;52.014;8.540;2023-02-12T05:42:00;102302.44;;;5.04;96.44
2188;BME280;1100;52.014;8.540;2023-02-12T05:44:25;102304.41;;;5.04;96.38
2188;BME280;1100;52.014;8.540;2023-02-12T05:46:50;102306.81;;;5.05;96.44
2188;BME280;1100;52.014;8.540;2023-02-12T05:49:16;102304.31;;;5.00;96.37
2188;BME280;1100;52.014;8.540;2023-02-12T05:51:41;102309.47;;;5.02;96.50
2188;BME280;1100;52.014;8.540;2023-02-12T05:54:06;102309.81;;;5.00;96.47
2188;BME280;1100;52.014;8.540;2023-02-12T05:56:40;102310.16;;;4.98;96.49
2188;BME280;1100;52.014;8.540;2023-02-12T05:59:12;102305.44;;;4.99;96.62
2188;BME280;1100;52.014;8.540;2023-02-12T06:01:40;102313.72;;;4.99;96.42
2188;BME280;1100;52.014;8.540;2023-02-12T06:04:09;102304.19;;;4.96;96.30
2188;BME280;1100;52.014;8.540;2023-02-12T06:06:34;102304.66;;;4.98;96.66
2188;BME280;1100;52.014;8.540;2023-02-12T06:09:00;102309.34;;;4.98;96.81
2188;BME280;1100;52.014;8.540;2023-02-12T06:11:26;102302.59;;;4.95;96.43
2188;BME280;1100;52.014;8.540;2023-02-12T06:13:51;102308.44;;;4.94;96.61
2188;BME280;1100;52.014;8.540;2023-02-12T06:16:23;102307.28;;;4.95;96.39
2188;BME280;1100;52.014;8.540;2023-02-12T06:18:49;102300.97;;;4.94;96.33
2188;BME280;1100;52.014;8.540;2023-02-12T06:21:15;102313.63;;;4.95;96.65
2188;BME280;1100;52.014;8.540;2023-02-12T06:23:41;102311.97;;;4.94;96.78
2188;BME280;1100;52.014;8.540;2023-02-12T06:26:07;102307.41;;;4.98;96.91
2188;BME280;1100;52.014;8.540;2023-02-12T06:28:33;102308.78;;;4.92;96.76
2188;BME280;1100;52.014;8.540;2023-02-12T06:30:58;102312.81;;;4.95;96.68
2188;BME280;1100;52.014;8.540;2023-02-12T06:33:23;102309.69;;;4.96;96.78
2188;BME280;1100;52.014;8.540;2023-02-12T06:35:48;102309.22;;;4.94;96.49
2188;BME280;1100;52.014;8.540;2023-02-12T06:38:14;102310.72;;;4.92;96.54
2188;BME280;1100;52.014;8.540;2023-02-12T06:40:40;102316.59;;;4.90;96.83
2188;BME280;1100;52.014;8.540;2023-02-12T06:43:05;102313.84;;;4.90;96.62
2188;BME280;1100;52.014;8.540;2023-02-12T06:45:31;102323.69;;;4.91;96.49
2188;BME280;1100;52.014;8.540;2023-02-12T06:47:57;102319.69;;;4.89;96.47
2188;BME280;1100;52.014;8.540;2023-02-12T06:50:22;102323.25;;;4.89;96.72
2188;BME280;1100;52.014;8.540;2023-02-12T06:52:48;102324.03;;;4.90;96.80
2188;BME280;1100;52.014;8.540;2023-02-12T06:55:14;102331.53;;;4.89;96.77
2188;BME280;1100;52.014;8.540;2023-02-12T06:57:39;102332.31;;;4.90;96.61
2188;BME280;1100;52.014;8.540;2023-02-12T07:00:05;102340.59;;;4.90;96.93
2188;BME280;1100;52.014;8.540;2023-02-12T07:02:30;102333.47;;;4.89;96.72
2188;BME280;1100;52.014;8.540;2023-02-12T07:04:56;102334.28;;;4.89;96.49
2188;BME280;1100;52.014;8.540;2023-02-12T07:07:21;102335.75;;;4.86;96.76
2188;BME280;1100;52.014;8.540;2023-02-12T07:09:46;102341.28;;;4.86;96.63
2188;BME280;1100;52.014;8.540;2023-02-12T07:12:12;102352.28;;;4.86;97.01
2188;BME280;1100;52.014;8.540;2023-02-12T07:14:37;102342.91;;;4.88;97.04
2188;BME280;1100;52.014;8.540;2023-02-12T07:17:02;102342.91;;;4.88;96.93
2188;BME280;1100;52.014;8.540;2023-02-12T07:19:29;102353.94;;;4.88;96.75
2188;BME280;1100;52.014;8.540;2023-02-12T07:21:55;102359.44;;;4.88;96.78
2188;BME280;1100;52.014;8.540;2023-02-12T07:24:20;102361.38;;;4.87;96.65
2188;BME280;1100;52.014;8.540;2023-02-12T07:26:46;102363.09;;;4.92;97.08
2188;BME280;1100;52.014;8.540;2023-02-12T07:29:12;102365.38;;;4.90;97.03
2188;BME280;1100;52.014;8.540;2023-02-12T07:31:37;102373.66;;;4.90;96.97
2188;BME280;1100;52.014;8.540;2023-02-12T07:34:03;102376.06;;;4.91;96.88
2188;BME280;1100;52.014;8.540;2023-02-12T07:36:31;102385.28;;;4.95;97.04
2188;BME280;1100;52.014;8.540;2023-02-12T07:38:57;102384.13;;;4.96;97.00
2188;BME280;1100;52.014;8.540;2023-02-12T07:41:25;102385.72;;;4.97;96.90
2188;BME280;1100;52.014;8.540;2023-02-12T07:43:56;102389.28;;;4.98;96.81
2188;BME280;1100;52.014;8.540;2023-02-12T07:46:33;102384.59;;;4.98;97.16
2188;BME280;1100;52.014;8.540;2023-02-12T07:49:00;102388.94;;;4.99;96.89
2188;BME280;1100;52.014;8.540;2023-02-12T07:51:28;102399.28;;;5.03;96.86
2188;BME280;1100;52.014;8.540;2023-02-12T07:53:53;102392.97;;;5.02;97.01
2188;BME280;1100;52.014;8.540;2023-02-12T07:56:24;102395.38;;;5.04;96.99
2188;BME280;1100;52.014;8.540;2023-02-12T07:58:53;102398.94;;;5.04;96.81
2188;BME280;1100;52.014;8.540;2023-02-12T08:01:24;102398.94;;;5.04;97.07
2188;BME280;1100;52.014;8.540;2023-02-12T08:03:51;102401.34;;;5.06;97.00
2188;BME280;1100;52.014;8.540;2023-02-12T08:06:28;102399.84;;;5.08;97.12
2188;BME280;1100;52.014;8.540;2023-02-12T08:08:56;102397.09;;;5.08;97.02
2188;BME280;1100;52.014;8.540;2023-02-12T08:11:22;102390.78;;;5.08;96.97
2188;BME280;1100;52.014;8.540;2023-02-12T08:13:48;102392.88;;;5.11;97.13
2188;BME280;1100;52.014;8.540;2023-02-12T08:16:16;102409.06;;;5.13;96.82
2188;BME280;1100;52.014;8.540;2023-02-12T08:18:42;102406.31;;;5.13;97.00
2188;BME280;1100;52.014;8.540;2023-02-12T08:21:13;102413.88;;;5.16;96.86
2188;BME280;1100;52.014;8.540;2023-02-12T08:23:38;102418.03;;;5.22;97.13
2188;BME280;1100;52.014;8.540;2023-02-12T08:26:11;102406.19;;;5.21;97.09
2188;BME280;1100;52.014;8.540;2023-02-12T08:28:39;102419.63;;;5.23;96.71
2188;BME280;1100;52.014;8.540;2023-02-12T08:31:25;102420.09;;;5.25;97.14
2188;BME280;1100;52.014;8.540;2023-02-12T08:33:52;102424.44;;;5.26;97.02
2188;BME280;1100;52.014;8.540;2023-02-12T08:36:20;102426.53;;;5.29;96.80
2188;BME280;1100;52.014;8.540;2023-02-12T08:38:46;102433.63;;;5.30;96.99
2188;BME280;1100;52.014;8.540;2023-02-12T08:41:14;102429.75;;;5.31;96.85
2188;BME280;1100;52.014;8.540;2023-02-12T08:43:41;102430.09;;;5.30;96.54
2188;BME280;1100;52.014;8.540;2023-02-12T08:46:09;102438.25;;;5.26;96.50
2188;BME280;1100;52.014;8.540;2023-02-12T08:48:35;102432.84;;;5.30;96.74
2188;BME280;1100;52.014;8.540;2023-02-12T08:51:10;102441.25;;;5.33;96.84
2188;BME280;1100;52.014;8.540;2023-02-12T08:53:37;102444.00;;;5.33;96.68
2188;BME280;1100;52.014;8.540;2023-02-12T08:56:03;102444.78;;;5.34;96.88
2188;BME280;1100;52.014;8.540;2023-02-12T08:58:28;102442.84;;;5.34;96.75
2188;BME280;1100;52.014;8.540;2023-02-12T09:00:54;102442.38;;;5.32;96.86
2188;BME280;1100;52.014;8.540;2023-02-12T09:03:19;102441.69;;;5.35;96.80
2188;BME280;1100;52.014;8.540;2023-02-12T09:05:44;102437.47;;;5.38;96.68
2188;BME280;1100;52.014;8.540;2023-02-12T09:08:10;102442.63;;;5.40;96.91
2188;BME280;1100;52.014;8.540;2023-02-12T09:10:39;102445.81;;;5.42;96.79
2188;BME280;1100;52.014;8.540;2023-02-12T09:13:05;102448.38;;;5.47;96.92
2188;BME280;1100;52.014;8.540;2023-02-12T09:15:31;102444.44;;;5.48;96.82
2188;BME280;1100;52.014;8.540;2023-02-12T09:17:56;102450.44;;;5.50;96.85
2188;BME280;1100;52.014;8.540;2023-02-12T09:20:21;102454.09;;;5.54;96.88
2188;BME280;1100;52.014;8.540;2023-02-12T09:22:47;102451.13;;;5.59;96.94
2188;BME280;1100;52.014;8.540;2023-02-12T09:25:12;102453.66;;;5.65;96.75
2188;BME280;1100;52.014;8.540;2023-02-12T09:27:38;102456.63;;;5.72;96.81
2188;BME280;1100;52.014;8.540;2023-02-12T09:30:03;102453.63;;;5.77;96.72
2188;BME280;1100;52.014;8.540;2023-02-12T09:32:28;102456.13;;;5.82;96.85
2188;BME280;1100;52.014;8.540;2023-02-12T09:34:54;102456.72;;;5.88;96.66
2188;BME280;1100;52.014;8.540;2023-02-12T09:37:19;102458.06;;;5.94;96.75
2188;BME280;1100;52.014;8.540;2023-02-12T09:39:44;102461.28;;;5.96;96.54
2188;BME280;1100;52.014;8.540;2023-02-12T09:45:16;102461.63;;;6.07;96.82
2188;BME280;1100;52.014;8.540;2023-02-12T09:47:55;102461.28;;;6.09;97.09
2188;BME280;1100;52.014;8.540;2023-02-12T09:52:57;102469.31;;;6.14;96.71
2188;BME280;1100;52.014;8.540;2023-02-12T09:55:28;102476.09;;;6.17;96.89
2188;BME280;1100;52.014;8.540;2023-02-12T09:57:54;102473.78;;;6.19;96.74
2188;BME280;1100;52.014;8.540;2023-02-12T10:00:24;102470.34;;;6.22;96.72
2188;BME280;1100;52.014;8.540;2023-02-12T10:02:57;102476.41;;;6.28;96.76
2188;BME280;1100;52.014;8.540;2023-02-12T10:05:37;102477.69;;;6.30;96.91
2188;BME280;1100;52.014;8.540;2023-02-12T10:14:10;102480.00;;;6.57;96.79
2188;BME280;1100;52.014;8.540;2023-02-12T10:16:51;102477.78;;;6.63;96.38
2188;BME280;1100;52.014;8.540;2023-02-12T10:27:52;102472.00;;;6.68;96.60
2188;BME280;1100;52.014;8.540;2023-02-12T10:30:39;102477.34;;;6.77;96.44
2188;BME280;1100;52.014;8.540;2023-02-12T10:33:13;102479.25;;;6.89;96.85
2188;BME280;1100;52.014;8.540;2023-02-12T10:38:35;102478.19;;;6.93;96.11
2188;BME280;1100;52.014;8.540;2023-02-12T10:41:01;102479.63;;;7.03;96.35
2188;BME280;1100;52.014;8.540;2023-02-12T10:43:27;102484.44;;;7.06;96.12
2188;BME280;1100;52.014;8.540;2023-02-12T10:45:53;102477.06;;;7.10;96.14
2188;BME280;1100;52.014;8.540;2023-02-12T10:48:24;102485.97;;;7.04;95.66
2188;BME280;1100;52.014;8.540;2023-02-12T10:53:39;102475.78;;;6.92;95.98
2188;BME280;1100;52.014;8.540;2023-02-12T11:01:18;102469.69;;;6.86;95.94
2188;BME280;1100;52.014;8.540;2023-02-12T11:03:44;102458.91;;;6.81;95.79
2188;BME280;1100;52.014;8.540;2023-02-12T11:08:40;102463.81;;;6.88;96.36
2188;BME280;1100;52.014;8.540;2023-02-12T11:11:26;102472.03;;;6.84;96.24
2188;BME280;1100;52.014;8.540;2023-02-12T11:13:59;102460.16;;;6.83;96.39
2188;BME280;1100;52.014;8.540;2023-02-12T11:16:35;102466.94;;;6.86;96.36
2188;BME280;1100;52.014;8.540;2023-02-12T11:19:06;102468.19;;;6.89;96.30
2188;BME280;1100;52.014;8.540;2023-02-12T11:21:33;102467.91;;;6.94;96.42
2188;BME280;1100;52.014;8.540;2023-02-12T11:24:21;102466.69;;;6.91;95.91
2188;BME280;1100;52.014;8.540;2023-02-12T11:26:47;102459.25;;;6.95;96.47
2188;BME280;1100;52.014;8.540;2023-02-12T11:29:22;102453.84;;;6.99;96.36
2188;BME280;1100;52.014;8.540;2023-02-12T11:32:03;102457.50;;;7.03;96.20
2188;BME280;1100;52.014;8.540;2023-02-12T11:34:29;102447.59;;;7.02;96.13
2188;BME280;1100;52.014;8.540;2023-02-12T11:36:55;102445.00;;;7.09;96.53
2188;BME280;1100;52.014;8.540;2023-02-12T11:39:30;102445.72;;;7.22;96.38
2188;BME280;1100;52.014;8.540;2023-02-12T11:42:01;102442.03;;;7.34;96.49
2188;BME280;1100;52.014;8.540;2023-02-12T11:44:35;102446.13;;;7.41;96.42
2188;BME280;1100;52.014;8.540;2023-02-12T11:47:07;102445.72;;;7.39;96.41
2188;BME280;1100;52.014;8.540;2023-02-12T11:49:51;102444.91;;;7.38;96.45
2188;BME280;1100;52.014;8.540;2023-02-12T11:52:30;102443.94;;;7.30;96.21
2188;BME280;1100;52.014;8.540;2023-02-12T11:55:02;102446.97;;;7.25;96.47
2188;BME280;1100;52.014;8.540;2023-02-12T11:57:35;102447.25;;;7.20;96.45
2188;BME280;1100;52.014;8.540;2023-02-12T12:00:11;102441.63;;;7.16;96.50
2188;BME280;1100;52.014;8.540;2023-02-12T12:02:42;102442.44;;;7.17;96.44
2188;BME280;1100;52.014;8.540;2023-02-12T12:05:13;102435.63;;;7.14;96.38
2188;BME280;1100;52.014;8.540;2023-02-12T12:07:44;102442.34;;;7.13;96.55
2188;BME280;1100;52.014;8.540;2023-02-12T12:10:20;102435.63;;;7.14;96.35
2188;BME280;1100;52.014;8.540;2023-02-12T12:12:52;102425.84;;;7.17;96.25
2188;BME280;1100;52.014;8.540;2023-02-12T12:15:33;102423.94;;;7.21;96.19
2188;BME280;1100;52.014;8.540;2023-02-12T12:18:28;102428.84;;;7.28;96.35
2188;BME280;1100;52.014;8.540;2023-02-12T12:21:35;102432.59;;;7.35;96.36
2188;BME280;1100;52.014;8.540;2023-02-12T12:24:09;102429.09;;;7.39;96.27
2188;BME280;1100;52.014;8.540;2023-02-12T12:26:39;102427.22;;;7.43;96.30
2188;BME280;1100;52.014;8.540;2023-02-12T12:31:45;102425.00;;;7.32;96.28
2188;BME280;1100;52.014;8.540;2023-02-12T12:34:16;102424.09;;;7.28;96.12
2188;BME280;1100;52.014;8.540;2023-02-12T12:39:27;102424.56;;;7.30;96.51
2188;BME280;1100;52.014;8.540;2023-02-12T12:47:31;102414.56;;;7.42;96.32
2188;BME280;1100;52.014;8.540;2023-02-12T13:08:51;102385.59;;;7.55;96.31
2188;BME280;1100;52.014;8.540;2023-02-12T13:16:44;102382.94;;;7.43;96.06
2188;BME280;1100;52.014;8.540;2023-02-12T13:19:31;102381.34;;;7.42;95.90
2188;BME280;1100;52.014;8.540;2023-02-12T13:22:08;102376.69;;;7.46;96.01
2188;BME280;1100;52.014;8.540;2023-02-12T13:24:49;102373.78;;;7.58;96.01
2188;BME280;1100;52.014;8.540;2023-02-12T13:27:21;102374.09;;;7.73;96.08
2188;BME280;1100;52.014;8.540;2023-02-12T13:29:51;102377.38;;;7.79;96.13
2188;BME280;1100;52.014;8.540;2023-02-12T13:32:24;102377.16;;;7.88;96.20
2188;BME280;1100;52.014;8.540;2023-02-12T13:34:53;102372.16;;;7.93;96.08
2188;BME280;1100;52.014;8.540;2023-02-12T13:37:43;102369.88;;;7.99;96.11
2188;BME280;1100;52.014;8.540;2023-02-12T13:40:16;102382.63;;;8.04;96.17
2188;BME280;1100;52.014;8.540;2023-02-12T13:45:29;102371.75;;;8.15;96.27
2188;BME280;1100;52.014;8.540;2023-02-12T13:48:15;102374.88;;;8.13;96.06
2188;BME280;1100;52.014;8.540;2023-02-12T13:50:55;102377.38;;;7.98;95.71
2188;BME280;1100;52.014;8.540;2023-02-12T13:53:33;102377.88;;;7.84;95.82
2188;BME280;1100;52.014;8.540;2023-02-12T13:56:06;102377.00;;;7.80;96.09
2188;BME280;1100;52.014;8.540;2023-02-12T14:01:09;102380.88;;;7.76;96.25
2188;BME280;1100;52.014;8.540;2023-02-12T14:03:36;102375.25;;;7.72;96.01
2188;BME280;1100;52.014;8.540;2023-02-12T14:08:46;102383.41;;;7.65;96.08
2188;BME280;1100;52.014;8.540;2023-02-12T14:11:14;102383.31;;;7.61;96.24
2188;BME280;1100;52.014;8.540;2023-02-12T14:13:56;102376.09;;;7.56;95.62
2188;BME280;1100;52.014;8.540;2023-02-12T14:19:38;102380.31;;;7.50;96.08
2188;BME280;1100;52.014;8.540;2023-02-12T14:24:56;102369.47;;;7.41;95.99
2188;BME280;1100;52.014;8.540;2023-02-12T14:27:33;102372.97;;;7.38;95.93
2188;BME280;1100;52.014;8.540;2023-02-12T14:35:40;102369.31;;;7.34;96.06
2188;BME280;1100;52.014;8.540;2023-02-12T14:41:23;102372.44;;;7.32;96.01
2188;BME280;1100;52.014;8.540;2023-02-12T14:49:17;102361.38;;;7.32;96.11
2188;BME280;1100;52.014;8.540;2023-02-12T14:52:05;102366.91;;;7.32;96.03
2188;BME280;1100;52.014;8.540;2023-02-12T14:54:42;102357.72;;;7.28;95.97
2188;BME280;1100;52.014;8.540;2023-02-12T14:57:32;102360.47;;;7.28;95.96
2188;BME280;1100;52.014;8.540;2023-02-12T15:00:03;102359.69;;;7.28;96.02
2188;BME280;1100;52.014;8.540;2023-02-12T15:02:33;102368.78;;;7.28;95.99
2188;BME280;1100;52.014;8.540;2023-02-12T15:05:12;102366.72;;;7.25;95.91
2188;BME280;1100;52.014;8.540;2023-02-12T15:08:06;102369.06;;;7.23;96.08
2188;BME280;1100;52.014;8.540;2023-02-12T15:10:36;102363.53;;;7.23;96.19
2188;BME280;1100;52.014;8.540;2023-02-12T15:13:29;102364.31;;;7.23;96.04
2188;BME280;1100;52.014;8.540;2023-02-12T15:16:13;102361.91;;;7.22;96.02
2188;BME280;1100;52.014;8.540;2023-02-12T15:18:49;102370.66;;;7.24;96.05
2188;BME280;1100;52.014;8.540;2023-02-12T15:21:18;102363.53;;;7.23;95.98
2188;BME280;1100;52.014;8.540;2023-02-12T15:23:46;102360.31;;;7.21;95.84
2188;BME280;1100;52.014;8.540;2023-02-12T15:26:29;102363.91;;;7.21;95.98
2188;BME280;1100;52.014;8.540;2023-02-12T15:28:55;102361.84;;;7.18;96.09
2188;BME280;1100;52.014;8.540;2023-02-12T15:31:26;102369.69;;;7.16;96.03
2188;BME280;1100;52.014;8.540;2023-02-12T15:33:53;102368.81;;;7.12;96.00
2188;BME280;1100;52.014;8.540;2023-02-12T15:36:22;102365.25;;;7.12;96.03
2188;BME280;1100;52.014;8.540;2023-02-12T15:38:56;102359.97;;;7.06;95.78
2188;BME280;1100;52.014;8.540;2023-02-12T15:43:56;102360.69;;;7.03;95.68
2188;BME280;1100;52.014;8.540;2023-02-12T15:46:21;102363.81;;;7.02;95.84
2188;BME280;1100;52.014;8.540;2023-02-12T15:48:46;102363.75;;;6.98;96.04
2188;BME280;1100;52.014;8.540;2023-02-12T15:51:20;102368.56;;;7.01;95.90
2188;BME280;1100;52.014;8.540;2023-02-12T15:53:47;102364.19;;;7.00;95.92
2188;BME280;1100;52.014;8.540;2023-02-12T15:56:15;102363.75;;;6.98;95.95
2188;BME280;1100;52.014;8.540;2023-02-12T16:01:15;102361.72;;;6.95;96.02
2188;BME280;1100;52.014;8.540;2023-02-12T16:03:42;102369.53;;;6.93;95.71
2188;BME280;1100;52.014;8.540;2023-02-12T16:06:12;102367.59;;;6.93;95.90
2188;BME280;1100;52.014;8.540;2023-02-12T16:09:03;102368.31;;;6.90;95.66